createdAt,value
2019-01-13T00:01:08.401Z,2.50
2019-01-13T00:03:39.004Z,2.40
2019-01-13T00:06:09.577Z,2.40
2019-01-13T00:08:39.866Z,2.50
2019-01-13T00:11:10.346Z,2.50
2019-01-13T00:13:40.881Z,2.50
2019-01-13T00:16:11.437Z,2.50
2019-01-13T00:18:41.613Z,2.50
2019-01-13T00:21:12.091Z,2.60
2019-01-13T00:23:42.336Z,2.60
2019-01-13T00:26:12.151Z,2.60
2019-01-13T00:28:42.791Z,2.50
2019-01-13T00:31:13.368Z,2.50
2019-01-13T00:33:43.575Z,2.50
2019-01-13T00:36:14.175Z,2.50
2019-01-13T00:38:44.061Z,2.50
2019-01-13T00:41:14.267Z,2.50
2019-01-13T00:43:44.436Z,2.60
2019-01-13T00:46:14.685Z,2.60
2019-01-13T00:48:44.855Z,2.70
2019-01-13T00:51:15.236Z,2.60
2019-01-13T00:53:44.723Z,2.60
2019-01-13T00:56:15.365Z,2.60
2019-01-13T00:58:45.577Z,2.70
2019-01-13T01:01:16.219Z,2.70
2019-01-13T01:03:46.795Z,2.70
2019-01-13T01:06:17.476Z,2.70
2019-01-13T01:08:47.743Z,2.70
2019-01-13T01:11:19.674Z,2.60
2019-01-13T01:13:50.370Z,2.70
2019-01-13T01:16:20.989Z,2.70
2019-01-13T01:18:51.401Z,2.70
2019-01-13T01:21:21.678Z,2.70
2019-01-13T01:23:52.274Z,2.80
2019-01-13T01:26:22.917Z,2.70
2019-01-13T01:28:53.591Z,2.70
2019-01-13T01:31:23.773Z,2.70
2019-01-13T01:33:53.939Z,2.80
2019-01-13T01:36:24.277Z,2.80
2019-01-13T01:38:54.747Z,2.80
2019-01-13T01:41:24.863Z,2.80
2019-01-13T01:43:55.475Z,2.80
2019-01-13T01:46:25.733Z,2.90
2019-01-13T01:48:56.051Z,2.90
2019-01-13T01:51:26.337Z,2.90
2019-01-13T01:53:56.521Z,3.00
2019-01-13T01:56:26.891Z,3.00
2019-01-13T01:58:57.044Z,3.00
2019-01-13T02:01:27.622Z,3.10
2019-01-13T02:03:58.210Z,3.10
2019-01-13T02:06:28.462Z,3.20
2019-01-13T02:08:57.911Z,3.10
2019-01-13T02:11:27.421Z,3.10
2019-01-13T02:13:58.045Z,3.10
2019-01-13T02:16:28.385Z,3.20
2019-01-13T02:18:58.867Z,3.10
2019-01-13T02:21:29.443Z,3.10
2019-01-13T02:23:59.269Z,3.20
2019-01-13T02:26:29.219Z,3.20
2019-01-13T02:28:59.823Z,3.20
2019-01-13T02:31:29.779Z,3.20
2019-01-13T02:34:00.451Z,3.20
2019-01-13T02:36:30.664Z,3.20
2019-01-13T02:39:01.277Z,3.30
2019-01-13T02:41:31.556Z,3.30
2019-01-13T02:44:01.733Z,3.30
2019-01-13T02:46:32.405Z,3.30
2019-01-13T02:49:02.577Z,3.30
2019-01-13T02:51:33.206Z,3.30
2019-01-13T02:54:03.597Z,3.30
2019-01-13T02:56:33.824Z,3.30
2019-01-13T02:59:04.351Z,3.30
2019-01-13T03:01:34.823Z,3.30
2019-01-13T03:04:05.269Z,3.30
2019-01-13T03:06:35.855Z,3.30
2019-01-13T03:09:09.520Z,3.30
2019-01-13T03:11:39.822Z,3.30
2019-01-13T03:14:09.985Z,3.30
2019-01-13T03:16:40.577Z,3.40
2019-01-13T03:19:10.584Z,3.40
2019-01-13T03:21:40.950Z,3.30
2019-01-13T03:24:11.611Z,3.30
2019-01-13T03:26:42.101Z,3.30
2019-01-13T03:29:12.448Z,3.30
2019-01-13T03:31:43.062Z,3.30
2019-01-13T03:34:13.262Z,3.30
2019-01-13T03:36:43.454Z,3.30
2019-01-13T03:39:13.686Z,3.30
2019-01-13T03:41:43.631Z,3.30
2019-01-13T03:44:14.068Z,3.30
2019-01-13T03:46:43.656Z,3.30
2019-01-13T03:49:13.902Z,3.30
2019-01-13T03:51:44.436Z,3.30
2019-01-13T03:54:14.553Z,3.40
2019-01-13T03:56:45.168Z,3.30
2019-01-13T03:59:15.737Z,3.40
2019-01-13T04:01:45.956Z,3.40
2019-01-13T04:04:16.237Z,3.40
2019-01-13T04:06:46.157Z,3.40
2019-01-13T04:09:16.399Z,3.50
2019-01-13T04:11:47.088Z,3.50
2019-01-13T04:14:17.291Z,3.50
2019-01-13T04:16:47.718Z,3.50
2019-01-13T04:19:18.284Z,3.50
2019-01-13T04:21:48.894Z,3.50
2019-01-13T04:24:19.567Z,3.60
2019-01-13T04:26:50.171Z,3.60
2019-01-13T04:29:20.549Z,3.50
2019-01-13T04:31:51.173Z,3.60
2019-01-13T04:34:21.743Z,3.60
2019-01-13T04:36:51.882Z,3.60
2019-01-13T04:39:22.142Z,3.50
2019-01-13T04:41:52.683Z,3.50
2019-01-13T04:44:22.502Z,3.50
2019-01-13T04:46:52.831Z,3.50
2019-01-13T04:49:23.007Z,3.40
2019-01-13T04:51:53.624Z,3.50
2019-01-13T04:54:24.123Z,3.50
2019-01-13T04:56:54.617Z,3.50
2019-01-13T04:59:25.223Z,3.50
2019-01-13T05:01:55.520Z,3.50
2019-01-13T05:04:25.969Z,3.50
2019-01-13T05:06:56.571Z,3.50
2019-01-13T05:09:26.825Z,3.50
2019-01-13T05:11:57.019Z,3.60
2019-01-13T05:14:27.566Z,3.60
2019-01-13T05:16:57.735Z,3.60
2019-01-13T05:19:28.255Z,3.60
2019-01-13T05:21:58.841Z,3.60
2019-01-13T05:24:29.017Z,3.60
2019-01-13T05:26:59.534Z,3.60
2019-01-13T05:29:30.016Z,3.60
2019-01-13T05:32:00.641Z,3.60
2019-01-13T05:34:30.958Z,3.60
2019-01-13T05:37:01.633Z,3.60
2019-01-13T05:39:32.207Z,3.60
2019-01-13T05:42:02.889Z,3.60
2019-01-13T05:44:32.842Z,3.60
2019-01-13T05:47:03.379Z,3.60
2019-01-13T05:49:33.154Z,3.60
2019-01-13T05:52:03.709Z,3.60
2019-01-13T05:54:34.153Z,3.70
2019-01-13T05:57:04.340Z,3.70
2019-01-13T05:59:34.977Z,3.70
2019-01-13T06:02:05.363Z,3.70
2019-01-13T06:04:36.043Z,3.70
2019-01-13T06:07:06.601Z,3.80
2019-01-13T06:09:37.293Z,3.80
2019-01-13T06:12:07.202Z,3.80
2019-01-13T06:14:37.792Z,3.80
2019-01-13T06:17:08.407Z,3.80
2019-01-13T06:19:38.981Z,3.80
2019-01-13T06:22:09.517Z,3.80
2019-01-13T06:24:40.203Z,3.80
2019-01-13T06:27:10.681Z,3.80
2019-01-13T06:29:41.217Z,3.90
2019-01-13T06:32:11.483Z,3.80
2019-01-13T06:34:42.055Z,3.80
2019-01-13T06:37:12.751Z,3.80
2019-01-13T06:39:43.245Z,3.80
2019-01-13T06:42:13.788Z,3.70
2019-01-13T06:44:44.145Z,3.80
2019-01-13T06:47:14.711Z,3.80
2019-01-13T06:49:44.841Z,3.80
2019-01-13T06:52:15.432Z,3.80
2019-01-13T06:54:45.603Z,3.80
2019-01-13T06:57:15.883Z,3.80
2019-01-13T06:59:45.800Z,3.90
2019-01-13T07:02:16.385Z,3.90
2019-01-13T07:04:46.575Z,3.90
2019-01-13T07:07:17.198Z,3.90
2019-01-13T07:09:47.101Z,3.90
2019-01-13T07:12:17.571Z,3.90
2019-01-13T07:14:48.067Z,3.90
2019-01-13T07:17:18.524Z,3.90
2019-01-13T07:19:49.129Z,3.90
2019-01-13T07:22:19.433Z,3.80
2019-01-13T07:24:50.091Z,3.90
2019-01-13T07:27:19.921Z,3.80
2019-01-13T07:29:50.552Z,3.80
2019-01-13T07:32:20.749Z,3.70
2019-01-13T07:34:51.407Z,3.70
2019-01-13T07:37:21.584Z,3.80
2019-01-13T07:39:51.771Z,3.80
2019-01-13T07:42:22.303Z,3.80
2019-01-13T07:44:52.489Z,3.80
2019-01-13T07:47:23.083Z,3.80
2019-01-13T07:49:53.572Z,3.80
2019-01-13T07:52:24.037Z,3.90
2019-01-13T07:54:54.496Z,3.80
2019-01-13T07:57:25.061Z,3.80
2019-01-13T07:59:55.601Z,3.80
2019-01-13T08:02:26.151Z,3.80
2019-01-13T08:04:56.785Z,3.80
2019-01-13T08:07:27.252Z,3.80
2019-01-13T08:09:57.593Z,3.80
2019-01-13T08:12:28.239Z,3.80
2019-01-13T08:14:58.833Z,3.90
2019-01-13T08:17:29.135Z,3.80
2019-01-13T08:19:59.831Z,3.90
2019-01-13T08:22:30.032Z,3.90
2019-01-13T08:25:00.525Z,3.90
2019-01-13T08:27:31.045Z,3.90
2019-01-13T08:30:01.367Z,3.90
2019-01-13T08:32:31.908Z,3.90
2019-01-13T08:35:02.081Z,3.90
2019-01-13T08:37:32.347Z,4.00
2019-01-13T08:40:02.285Z,4.00
2019-01-13T08:42:32.451Z,4.00
2019-01-13T08:45:02.871Z,4.00
2019-01-13T08:47:33.553Z,4.00
2019-01-13T08:50:04.051Z,4.00
2019-01-13T08:52:34.733Z,4.10
2019-01-13T08:55:05.603Z,4.10
2019-01-13T08:57:35.959Z,4.10
2019-01-13T09:00:09.253Z,4.10
2019-01-13T09:02:39.779Z,4.10
2019-01-13T09:05:10.402Z,4.10
2019-01-13T09:07:40.995Z,4.10
2019-01-13T09:10:12.717Z,4.10
2019-01-13T09:12:43.281Z,4.10
2019-01-13T09:15:19.413Z,4.10
2019-01-13T09:17:50.303Z,4.10
2019-01-13T09:20:22.597Z,4.10
2019-01-13T09:22:53.360Z,4.10
2019-01-13T09:25:23.703Z,4.10
2019-01-13T09:27:54.197Z,4.10
2019-01-13T09:30:28.930Z,4.10
2019-01-13T09:32:59.244Z,4.10
2019-01-13T09:35:31.065Z,4.10
2019-01-13T09:38:01.435Z,4.00
2019-01-13T09:40:32.971Z,4.00
2019-01-13T09:43:04.842Z,3.90
2019-01-13T09:45:35.507Z,3.90
2019-01-13T09:48:06.195Z,3.90
2019-01-13T09:50:36.531Z,3.80
2019-01-13T09:53:07.089Z,3.70
2019-01-13T09:55:37.395Z,3.60
2019-01-13T09:58:07.997Z,3.50
2019-01-13T10:00:39.262Z,3.50
2019-01-13T10:03:10.667Z,3.40
2019-01-13T10:05:41.259Z,3.30
2019-01-13T10:08:11.501Z,3.30
2019-01-13T10:10:43.829Z,3.20
2019-01-13T10:13:14.529Z,3.20
2019-01-13T10:15:45.717Z,3.10
2019-01-13T10:18:16.411Z,3.10
2019-01-13T10:20:47.079Z,3.00
2019-01-13T10:23:17.649Z,2.90
2019-01-13T10:25:48.099Z,2.90
2019-01-13T10:28:18.707Z,2.90
2019-01-13T10:30:48.497Z,2.80
2019-01-13T10:33:18.426Z,2.80
2019-01-13T10:35:49.123Z,2.80
2019-01-13T10:38:19.802Z,2.70
2019-01-13T10:40:50.017Z,2.70
2019-01-13T10:43:20.225Z,2.60
2019-01-13T10:45:50.457Z,2.60
2019-01-13T10:48:21.114Z,2.60
2019-01-13T10:50:51.725Z,2.60
2019-01-13T10:53:22.305Z,2.50
2019-01-13T10:55:52.991Z,2.50
2019-01-13T10:58:23.545Z,2.50
2019-01-13T11:00:53.722Z,2.50
2019-01-13T11:03:24.332Z,2.50
2019-01-13T11:05:54.647Z,2.50
2019-01-13T11:08:25.257Z,2.50
2019-01-13T11:10:55.626Z,2.50
2019-01-13T11:13:26.203Z,2.50
2019-01-13T11:15:56.460Z,2.50
2019-01-13T11:18:26.999Z,2.50
2019-01-13T11:20:57.423Z,2.50
2019-01-13T11:23:27.720Z,2.50
2019-01-13T11:25:57.886Z,2.50
2019-01-13T11:28:27.886Z,2.50
2019-01-13T11:30:58.344Z,2.50
2019-01-13T11:33:28.939Z,2.50
2019-01-13T11:35:59.141Z,2.50
2019-01-13T11:38:29.664Z,2.50
2019-01-13T11:40:59.920Z,2.60
2019-01-13T11:43:30.195Z,2.60
2019-01-13T11:46:00.491Z,2.50
2019-01-13T11:48:31.114Z,2.50
2019-01-13T11:51:01.462Z,2.60
2019-01-13T11:53:31.901Z,2.60
2019-01-13T11:56:02.488Z,2.60
2019-01-13T11:58:32.643Z,2.50
2019-01-13T12:01:02.949Z,2.50
2019-01-13T12:03:33.572Z,2.50
2019-01-13T12:06:04.383Z,2.50
2019-01-13T12:08:34.679Z,2.50
2019-01-13T12:11:05.325Z,2.50
2019-01-13T12:13:35.588Z,2.40
2019-01-13T12:16:05.517Z,2.40
2019-01-13T12:18:40.428Z,2.40
2019-01-13T12:21:08.662Z,2.40
2019-01-13T12:23:38.946Z,2.40
2019-01-13T12:26:09.596Z,2.40
2019-01-13T12:28:40.304Z,2.40
2019-01-13T12:31:10.789Z,2.40
2019-01-13T12:33:40.764Z,2.40
2019-01-13T12:36:11.485Z,2.40
2019-01-13T12:38:42.209Z,2.40
2019-01-13T12:41:12.807Z,2.40
2019-01-13T12:43:43.337Z,2.40
2019-01-13T12:46:13.978Z,2.40
2019-01-13T12:48:44.684Z,2.40
2019-01-13T12:51:16.022Z,2.30
2019-01-13T12:53:46.723Z,2.40
2019-01-13T12:56:16.882Z,2.40
2019-01-13T12:58:46.916Z,2.40
2019-01-13T13:01:17.796Z,2.40
2019-01-13T13:03:58.956Z,2.40
2019-01-13T13:06:29.501Z,2.40
2019-01-13T13:09:01.080Z,2.40
2019-01-13T13:11:31.696Z,2.40
2019-01-13T13:14:02.353Z,2.40
2019-01-13T13:16:32.638Z,2.50
2019-01-13T13:19:03.951Z,2.50
2019-01-13T13:21:35.170Z,2.50
2019-01-13T13:24:06.512Z,2.50
2019-01-13T13:26:38.587Z,2.50
2019-01-13T13:29:09.793Z,2.50
2019-01-13T13:31:40.773Z,2.60
2019-01-13T13:34:11.311Z,2.60
2019-01-13T13:36:42.017Z,2.60
2019-01-13T13:39:12.367Z,2.60
2019-01-13T13:41:43.054Z,2.60
2019-01-13T13:44:13.365Z,2.60
2019-01-13T13:46:44.159Z,2.50
2019-01-13T13:49:14.942Z,2.50
2019-01-13T13:51:45.729Z,2.50
2019-01-13T13:54:16.011Z,2.50
2019-01-13T13:56:46.191Z,2.50
2019-01-13T13:59:16.313Z,2.60
2019-01-13T14:01:46.787Z,2.60
2019-01-13T14:04:17.541Z,2.60
2019-01-13T14:06:48.004Z,2.60
2019-01-13T14:09:18.631Z,2.60
2019-01-13T14:11:49.203Z,2.60
2019-01-13T14:14:19.783Z,2.60
2019-01-13T14:16:50.487Z,2.70
2019-01-13T14:19:21.931Z,2.70
2019-01-13T14:21:52.353Z,2.70
2019-01-13T14:24:22.952Z,2.70
2019-01-13T14:26:54.092Z,2.80
2019-01-13T14:29:24.675Z,2.80
2019-01-13T14:31:55.172Z,2.80
2019-01-13T14:34:25.865Z,2.80
2019-01-13T14:36:57.175Z,2.80
2019-01-13T14:39:27.007Z,2.90
2019-01-13T14:42:02.249Z,3.00
2019-01-13T14:44:33.289Z,3.00
2019-01-13T14:47:04.617Z,3.00
2019-01-13T14:49:37.341Z,3.10
2019-01-13T14:52:07.881Z,3.10
2019-01-13T14:54:37.685Z,3.20
2019-01-13T14:57:07.895Z,3.20
2019-01-13T14:59:37.821Z,3.20
2019-01-13T15:02:08.354Z,3.20
2019-01-13T15:04:38.521Z,3.20
2019-01-13T15:07:10.024Z,3.30
2019-01-13T15:09:40.713Z,3.30
2019-01-13T15:12:11.101Z,3.30
2019-01-13T15:14:41.840Z,3.40
2019-01-13T15:17:12.321Z,3.40
2019-01-13T15:19:42.358Z,3.50
2019-01-13T15:22:12.602Z,3.70
2019-01-13T15:24:43.167Z,3.70
2019-01-13T15:27:13.376Z,3.90
2019-01-13T15:29:43.185Z,4.00
2019-01-13T15:32:13.652Z,4.10
2019-01-13T15:34:44.127Z,4.20
2019-01-13T15:37:14.463Z,4.30
2019-01-13T15:39:45.189Z,4.50
2019-01-13T15:42:15.791Z,4.60
2019-01-13T15:44:46.331Z,4.60
2019-01-13T15:47:16.599Z,4.70
2019-01-13T15:49:47.178Z,4.70
2019-01-13T15:52:17.811Z,4.80
2019-01-13T15:54:48.179Z,4.80
2019-01-13T15:57:18.749Z,4.90
2019-01-13T15:59:49.018Z,4.90
2019-01-13T16:02:18.556Z,4.90
2019-01-13T16:04:48.708Z,5.00
2019-01-13T16:07:19.419Z,5.10
2019-01-13T16:09:49.611Z,5.10
2019-01-13T16:12:20.131Z,5.10
2019-01-13T16:14:50.905Z,5.10
2019-01-13T16:17:21.373Z,5.20
2019-01-13T16:19:51.253Z,5.20
2019-01-13T16:22:21.527Z,5.20
2019-01-13T16:24:51.727Z,5.10
2019-01-13T16:27:21.611Z,5.10
2019-01-13T16:29:52.166Z,5.10
2019-01-13T16:32:22.292Z,5.30
2019-01-13T16:34:52.527Z,5.30
2019-01-13T16:37:23.139Z,5.40
2019-01-13T16:39:53.033Z,5.40
2019-01-13T16:42:22.877Z,5.40
2019-01-13T16:44:53.104Z,5.50
2019-01-13T16:47:23.278Z,5.50
2019-01-13T16:49:53.877Z,5.50
2019-01-13T16:52:23.960Z,5.60
2019-01-13T16:54:54.571Z,5.60
2019-01-13T16:57:25.169Z,5.60
2019-01-13T16:59:57.078Z,5.60
2019-01-13T17:02:33.035Z,5.60
2019-01-13T17:04:59.927Z,5.70
2019-01-13T17:07:30.101Z,5.70
2019-01-13T17:09:59.965Z,5.70
2019-01-13T17:12:30.234Z,5.70
2019-01-13T17:15:00.442Z,5.70
2019-01-13T17:17:30.622Z,5.70
2019-01-13T17:20:01.159Z,5.60
2019-01-13T17:22:31.624Z,5.60
2019-01-13T17:25:01.922Z,5.60
2019-01-13T17:27:32.271Z,5.60
2019-01-13T17:30:02.101Z,5.60
2019-01-13T17:32:32.596Z,5.70
2019-01-13T17:35:03.079Z,5.60
2019-01-13T17:37:33.700Z,5.60
2019-01-13T17:40:04.454Z,5.70
2019-01-13T17:42:34.969Z,5.70
2019-01-13T17:45:06.203Z,5.70
2019-01-13T17:47:36.782Z,5.70
2019-01-13T17:50:08.780Z,5.80
2019-01-13T17:52:39.509Z,5.80
2019-01-13T17:55:12.092Z,5.80
2019-01-13T17:57:42.642Z,5.80
2019-01-13T18:00:31.054Z,5.80
2019-01-13T18:03:03.126Z,5.90
2019-01-13T18:05:33.691Z,5.90
2019-01-13T18:08:04.247Z,5.90
2019-01-13T18:10:34.529Z,5.90
2019-01-13T18:13:04.683Z,5.90
2019-01-13T18:15:35.250Z,5.90
2019-01-13T18:18:05.506Z,6.00
2019-01-13T18:20:36.036Z,6.00
2019-01-13T18:23:06.670Z,6.00
2019-01-13T18:25:37.213Z,6.00
2019-01-13T18:28:07.787Z,6.00
2019-01-13T18:30:38.372Z,6.00
2019-01-13T18:33:08.629Z,6.00
2019-01-13T18:35:39.174Z,6.00
2019-01-13T18:38:09.436Z,6.00
2019-01-13T18:40:39.627Z,6.10
2019-01-13T18:43:10.202Z,6.10
2019-01-13T18:45:40.120Z,6.10
2019-01-13T18:48:10.704Z,6.00
2019-01-13T18:50:41.050Z,6.00
2019-01-13T18:53:14.621Z,6.00
2019-01-13T18:55:44.914Z,6.00
2019-01-13T18:58:15.083Z,6.00
2019-01-13T19:00:45.639Z,5.90
2019-01-13T19:03:16.408Z,6.00
2019-01-13T19:05:46.654Z,6.00
2019-01-13T19:08:17.096Z,6.00
2019-01-13T19:11:40.286Z,6.00
2019-01-13T19:14:33.587Z,6.10
2019-01-13T19:17:08.978Z,6.10
2019-01-13T19:20:15.340Z,6.00
2019-01-13T19:22:47.766Z,6.00
2019-01-13T19:25:27.028Z,6.10
2019-01-13T19:27:57.276Z,6.10
2019-01-13T19:30:27.539Z,6.10
2019-01-13T19:32:57.519Z,6.10
2019-01-13T19:35:29.056Z,6.10
2019-01-13T19:37:59.331Z,6.10
2019-01-13T19:40:29.766Z,6.10
2019-01-13T19:43:00.230Z,6.10
2019-01-13T19:45:30.059Z,6.10
2019-01-13T19:48:00.780Z,6.10
2019-01-13T19:50:31.280Z,6.20
2019-01-13T19:53:03.183Z,6.30
2019-01-13T19:55:33.429Z,6.30
2019-01-13T19:58:03.990Z,6.30
2019-01-13T20:00:38.395Z,6.30
2019-01-13T20:03:08.941Z,6.30
2019-01-13T20:05:39.432Z,6.30
2019-01-13T20:08:10.066Z,6.30
2019-01-13T20:10:39.877Z,6.40
2019-01-13T20:13:09.799Z,6.40
2019-01-13T20:15:40.450Z,6.40
2019-01-13T20:18:11.046Z,6.40
2019-01-13T20:20:41.273Z,6.50
2019-01-13T20:23:11.926Z,6.40
2019-01-13T20:25:42.121Z,6.50
2019-01-13T20:28:12.841Z,6.40
2019-01-13T20:30:43.170Z,6.50
2019-01-13T20:33:13.563Z,6.50
2019-01-13T20:35:44.108Z,6.50
2019-01-13T20:38:14.551Z,6.40
2019-01-13T20:40:44.732Z,6.40
2019-01-13T20:43:15.100Z,6.40
2019-01-13T20:45:45.609Z,6.40
2019-01-13T20:48:16.456Z,6.40
2019-01-13T20:50:47.531Z,6.50
2019-01-13T20:53:18.345Z,6.50
2019-01-13T20:55:49.068Z,6.50
2019-01-13T20:58:19.586Z,6.60
2019-01-13T21:00:49.867Z,6.50
2019-01-13T21:03:20.028Z,6.60
2019-01-13T21:05:50.679Z,6.60
2019-01-13T21:08:21.187Z,6.60
2019-01-13T21:10:51.772Z,6.60
2019-01-13T21:13:21.964Z,6.60
2019-01-13T21:15:51.568Z,6.60
2019-01-13T21:18:21.744Z,6.50
2019-01-13T21:20:51.818Z,6.50
2019-01-13T21:23:21.625Z,6.60
2019-01-13T21:25:51.816Z,6.50
2019-01-13T21:28:22.583Z,6.50
2019-01-13T21:30:53.175Z,6.40
2019-01-13T21:33:23.215Z,6.30
2019-01-13T21:35:53.867Z,6.30
2019-01-13T21:38:24.445Z,6.30
2019-01-13T21:40:54.764Z,6.30
2019-01-13T21:43:25.215Z,6.30
2019-01-13T21:45:55.184Z,6.30
2019-01-13T21:48:25.521Z,6.30
2019-01-13T21:50:56.150Z,6.30
2019-01-13T21:53:26.392Z,6.40
2019-01-13T21:55:56.764Z,6.40
2019-01-13T21:58:26.968Z,6.50
2019-01-13T22:00:57.228Z,6.50
2019-01-13T22:03:27.575Z,6.60
2019-01-13T22:05:58.049Z,6.60
2019-01-13T22:08:28.557Z,6.70
2019-01-13T22:10:58.788Z,6.70
2019-01-13T22:13:29.327Z,6.80
2019-01-13T22:16:00.952Z,6.80
2019-01-13T22:18:31.596Z,6.70
2019-01-13T22:21:02.239Z,6.80
2019-01-13T22:23:32.038Z,6.80
2019-01-13T22:26:02.281Z,6.80
2019-01-13T22:28:32.635Z,6.80
2019-01-13T22:31:02.811Z,6.80
2019-01-13T22:33:33.458Z,6.80
2019-01-13T22:36:04.102Z,6.80
2019-01-13T22:38:34.268Z,6.80
2019-01-13T22:41:04.226Z,6.70
2019-01-13T22:43:34.705Z,6.70
2019-01-13T22:46:05.190Z,6.60
2019-01-13T22:48:35.614Z,6.60
2019-01-13T22:51:06.200Z,6.50
2019-01-13T22:53:36.739Z,6.40
2019-01-13T22:56:07.290Z,6.40
2019-01-13T22:58:37.490Z,6.40
2019-01-13T23:01:34.498Z,6.50
2019-01-13T23:04:13.409Z,6.50
2019-01-13T23:06:44.033Z,6.50
2019-01-13T23:09:14.615Z,6.40
2019-01-13T23:11:44.895Z,6.40
2019-01-13T23:14:15.256Z,6.40
2019-01-13T23:16:45.799Z,6.40
2019-01-13T23:19:16.446Z,6.40
2019-01-13T23:21:47.089Z,6.30
2019-01-13T23:24:17.342Z,6.20
2019-01-13T23:26:47.973Z,5.90
2019-01-13T23:29:18.463Z,5.60
2019-01-13T23:31:48.976Z,5.40
2019-01-13T23:34:19.572Z,5.30
2019-01-13T23:36:49.822Z,5.30
2019-01-13T23:39:20.392Z,5.30
2019-01-13T23:41:51.008Z,5.40
2019-01-13T23:44:21.586Z,5.50
2019-01-13T23:46:51.618Z,5.60
2019-01-13T23:49:22.282Z,5.70
2019-01-13T23:51:52.170Z,5.70
2019-01-13T23:54:22.755Z,5.70
2019-01-13T23:56:53.652Z,5.70
2019-01-13T23:59:23.594Z,5.70
